createdAt,value
2022-11-12T00:00:53.860Z,15.1
2022-11-12T00:01:59.958Z,15.1
2022-11-12T00:03:06.120Z,15.1
2022-11-12T00:04:12.177Z,15.1
2022-11-12T00:05:18.459Z,15.1
2022-11-12T00:06:24.429Z,15.1
2022-11-12T00:07:29.534Z,15.1
2022-11-12T00:08:35.669Z,15.1
2022-11-12T00:09:41.803Z,15.1
2022-11-12T00:10:47.899Z,15.1
2022-11-12T00:11:54.027Z,15.1
2022-11-12T00:13:00.111Z,15.1
2022-11-12T00:14:06.222Z,15.1
2022-11-12T00:15:11.403Z,15.1
2022-11-12T00:16:16.519Z,15.1
2022-11-12T00:17:21.630Z,15.1
2022-11-12T00:18:26.765Z,15.1
2022-11-12T00:19:32.869Z,15.1
2022-11-12T00:20:38.994Z,15.1
2022-11-12T00:21:45.107Z,15.1
2022-11-12T00:22:51.211Z,15.1
2022-11-12T00:23:57.383Z,15.1
2022-11-12T00:25:03.439Z,15.1
2022-11-12T00:26:09.548Z,15.1
2022-11-12T00:27:15.664Z,15.1
2022-11-12T00:28:21.768Z,15.1
2022-11-12T00:29:27.887Z,15.1
2022-11-12T00:30:34.057Z,15.1
2022-11-12T00:31:40.117Z,15.1
2022-11-12T00:32:45.257Z,15.1
2022-11-12T00:33:51.540Z,15.1
2022-11-12T00:34:57.489Z,15.1
2022-11-12T00:36:03.583Z,15.1
2022-11-12T00:37:09.711Z,15.1
2022-11-12T00:38:15.824Z,15.1
2022-11-12T00:39:21.935Z,15.1
2022-11-12T00:40:27.053Z,15.1
2022-11-12T00:41:32.189Z,15.1
2022-11-12T00:42:38.336Z,15.1
2022-11-12T00:43:43.549Z,15.1
2022-11-12T00:44:48.578Z,15.1
2022-11-12T00:45:54.688Z,15.1
2022-11-12T00:47:00.869Z,15.1
2022-11-12T00:48:06.911Z,15.1
2022-11-12T00:49:13.031Z,15.1
2022-11-12T00:50:19.187Z,15.1
2022-11-12T00:51:25.295Z,15.1
2022-11-12T00:52:31.369Z,15.1
2022-11-12T00:53:37.509Z,15.1
2022-11-12T00:54:43.678Z,15.1
2022-11-12T00:55:49.767Z,15.1
2022-11-12T00:56:55.877Z,15.1
2022-11-12T00:58:01.937Z,15
2022-11-12T00:59:07.106Z,15
2022-11-12T01:00:13.188Z,15.1
2022-11-12T01:01:19.302Z,15
2022-11-12T01:02:25.442Z,15.1
2022-11-12T01:03:31.520Z,15.1
2022-11-12T01:04:37.632Z,15
2022-11-12T01:05:43.802Z,15.1
2022-11-12T01:06:48.884Z,15
2022-11-12T01:07:54.016Z,15.1
2022-11-12T01:09:00.174Z,15
2022-11-12T01:10:05.270Z,15.1
2022-11-12T01:11:10.394Z,15
2022-11-12T01:12:16.508Z,15.1
2022-11-12T01:13:22.711Z,15
2022-11-12T01:14:28.746Z,15.1
2022-11-12T01:15:34.853Z,15.1
2022-11-12T01:16:40.970Z,15
2022-11-12T01:17:47.080Z,15
2022-11-12T01:18:53.196Z,15
2022-11-12T01:19:59.307Z,15
2022-11-12T01:21:05.426Z,15
2022-11-12T01:22:11.536Z,15
2022-11-12T01:23:17.648Z,15
2022-11-12T01:24:23.760Z,15
2022-11-12T01:25:28.887Z,15
2022-11-12T01:26:35.005Z,15
2022-11-12T01:27:41.123Z,15
2022-11-12T01:28:47.257Z,15
2022-11-12T01:29:53.349Z,15
2022-11-12T01:30:59.464Z,15
2022-11-12T01:32:05.574Z,15
2022-11-12T01:33:10.709Z,15
2022-11-12T01:34:15.875Z,15
2022-11-12T01:35:20.981Z,15
2022-11-12T01:36:26.106Z,15
2022-11-12T01:37:32.228Z,15
2022-11-12T01:38:38.338Z,15
2022-11-12T01:39:44.448Z,15
2022-11-12T01:40:50.565Z,15
2022-11-12T01:41:56.706Z,15
2022-11-12T01:43:02.844Z,15
2022-11-12T01:44:08.897Z,15
2022-11-12T01:45:15.033Z,15
2022-11-12T01:46:21.145Z,15
2022-11-12T01:47:27.246Z,15
2022-11-12T01:48:33.400Z,15
2022-11-12T01:49:39.475Z,15
2022-11-12T01:50:44.599Z,15
2022-11-12T01:51:50.711Z,15
2022-11-12T01:52:56.830Z,15
2022-11-12T01:54:02.942Z,15
2022-11-12T01:55:09.083Z,15
2022-11-12T01:56:15.172Z,15
2022-11-12T01:57:21.288Z,15
2022-11-12T01:58:26.426Z,15
2022-11-12T01:59:31.548Z,15
2022-11-12T02:00:37.664Z,15
2022-11-12T02:01:43.866Z,15
2022-11-12T02:02:49.901Z,15
2022-11-12T02:03:56.000Z,15
2022-11-12T02:05:02.155Z,15
2022-11-12T02:06:08.231Z,15
2022-11-12T02:07:14.360Z,15
2022-11-12T02:08:20.482Z,15
2022-11-12T02:09:26.632Z,15
2022-11-12T02:10:32.691Z,15
2022-11-12T02:11:38.853Z,15
2022-11-12T02:12:44.912Z,15
2022-11-12T02:13:50.045Z,15
2022-11-12T02:14:56.238Z,15
2022-11-12T02:16:02.273Z,15
2022-11-12T02:17:08.381Z,15
2022-11-12T02:18:14.523Z,15
2022-11-12T02:19:20.616Z,15
2022-11-12T02:20:26.729Z,15
2022-11-12T02:21:31.877Z,15
2022-11-12T02:22:36.995Z,15
2022-11-12T02:23:42.173Z,15
2022-11-12T02:24:47.258Z,15
2022-11-12T02:25:52.387Z,15
2022-11-12T02:26:57.524Z,15
2022-11-12T02:28:03.643Z,15
2022-11-12T02:29:09.755Z,15
2022-11-12T02:30:15.867Z,15
2022-11-12T02:31:22.050Z,15
2022-11-12T02:32:28.107Z,15
2022-11-12T02:33:34.205Z,15
2022-11-12T02:34:40.322Z,15
2022-11-12T02:35:46.444Z,15
2022-11-12T02:36:52.548Z,15
2022-11-12T02:37:58.664Z,15
2022-11-12T02:39:04.833Z,15
2022-11-12T02:40:10.958Z,15
2022-11-12T02:41:16.092Z,15
2022-11-12T02:42:22.132Z,15
2022-11-12T02:43:28.246Z,15
2022-11-12T02:44:34.366Z,15
2022-11-12T02:45:40.476Z,15
2022-11-12T02:46:46.595Z,15
2022-11-12T02:47:52.700Z,15
2022-11-12T02:48:57.888Z,15
2022-11-12T02:50:03.015Z,15
2022-11-12T02:51:09.085Z,15
2022-11-12T02:52:15.295Z,15
2022-11-12T02:53:21.405Z,15
2022-11-12T02:54:27.428Z,14.9
2022-11-12T02:55:33.537Z,15
2022-11-12T02:56:39.650Z,14.9
2022-11-12T02:57:45.767Z,15
2022-11-12T02:58:51.884Z,15
2022-11-12T02:59:57.998Z,15
2022-11-12T03:01:04.108Z,15
2022-11-12T03:02:10.223Z,14.9
2022-11-12T03:03:16.332Z,15
2022-11-12T03:04:21.459Z,15
2022-11-12T03:05:27.601Z,14.9
2022-11-12T03:06:33.775Z,14.9
2022-11-12T03:07:39.820Z,15
2022-11-12T03:08:45.917Z,15
2022-11-12T03:09:52.037Z,14.9
2022-11-12T03:10:58.173Z,15
2022-11-12T03:12:03.281Z,14.9
2022-11-12T03:13:08.412Z,14.9
2022-11-12T03:14:13.621Z,14.9
2022-11-12T03:15:18.737Z,14.9
2022-11-12T03:16:24.797Z,14.9
2022-11-12T03:17:30.906Z,14.9
2022-11-12T03:18:37.024Z,15
2022-11-12T03:19:43.141Z,14.9
2022-11-12T03:20:49.255Z,14.9
2022-11-12T03:21:55.359Z,14.9
2022-11-12T03:23:00.501Z,14.9
2022-11-12T03:24:06.614Z,14.9
2022-11-12T03:25:12.720Z,14.9
2022-11-12T03:26:18.840Z,14.9
2022-11-12T03:27:24.959Z,14.9
2022-11-12T03:28:31.065Z,14.9
2022-11-12T03:29:37.181Z,14.9
2022-11-12T03:30:43.296Z,14.9
2022-11-12T03:31:49.414Z,14.9
2022-11-12T03:32:55.555Z,14.9
2022-11-12T03:34:01.638Z,14.9
2022-11-12T03:35:07.749Z,14.9
2022-11-12T03:36:13.860Z,14.9
2022-11-12T03:37:18.999Z,14.9
2022-11-12T03:38:24.131Z,14.9
2022-11-12T03:39:30.247Z,14.9
2022-11-12T03:40:36.356Z,14.9
2022-11-12T03:41:42.477Z,14.9
2022-11-12T03:42:48.588Z,14.9
2022-11-12T03:43:54.699Z,14.9
2022-11-12T03:45:00.810Z,14.9
2022-11-12T03:46:06.929Z,14.9
2022-11-12T03:47:13.040Z,14.9
2022-11-12T03:48:19.158Z,14.9
2022-11-12T03:49:25.272Z,14.9
2022-11-12T03:50:31.386Z,14.9
2022-11-12T03:51:37.489Z,14.9
2022-11-12T03:52:42.631Z,14.9
2022-11-12T03:53:48.735Z,14.9
2022-11-12T03:54:54.909Z,14.9
2022-11-12T03:56:00.973Z,14.9
2022-11-12T03:57:07.077Z,14.9
2022-11-12T03:58:13.196Z,14.9
2022-11-12T03:59:19.313Z,14.9
2022-11-12T04:00:24.441Z,14.9
2022-11-12T04:01:29.570Z,14.9
2022-11-12T04:02:34.704Z,14.9
2022-11-12T04:03:39.841Z,14.9
2022-11-12T04:04:44.975Z,14.9
2022-11-12T04:05:50.122Z,14.9
2022-11-12T04:08:02.337Z,14.9
2022-11-12T04:09:08.448Z,14.9
2022-11-12T04:10:14.564Z,14.9
2022-11-12T04:11:20.710Z,14.9
2022-11-12T04:12:26.846Z,14.9
2022-11-12T04:13:32.907Z,14.9
2022-11-12T04:14:39.017Z,14.9
2022-11-12T04:15:45.134Z,14.9
2022-11-12T04:16:51.239Z,14.9
2022-11-12T04:17:57.362Z,14.9
2022-11-12T04:19:03.471Z,14.9
2022-11-12T04:20:08.657Z,14.9
2022-11-12T04:21:14.721Z,14.9
2022-11-12T04:22:20.831Z,14.8
2022-11-12T04:23:26.942Z,14.9
2022-11-12T04:24:33.055Z,14.9
2022-11-12T04:25:39.168Z,14.9
2022-11-12T04:26:45.279Z,14.9
2022-11-12T04:27:51.393Z,14.9
2022-11-12T04:28:56.534Z,14.9
2022-11-12T04:30:01.662Z,14.8
2022-11-12T04:31:06.804Z,14.8
2022-11-12T04:32:11.941Z,14.8
2022-11-12T04:33:18.043Z,14.8
2022-11-12T04:34:24.152Z,14.8
2022-11-12T04:35:30.302Z,14.8
2022-11-12T04:36:36.387Z,14.8
2022-11-12T04:37:42.505Z,14.8
2022-11-12T04:39:54.724Z,14.8
2022-11-12T04:41:00.843Z,14.8
2022-11-12T04:42:06.971Z,14.8
2022-11-12T04:43:13.076Z,14.8
2022-11-12T04:44:19.178Z,14.8
2022-11-12T04:45:25.300Z,14.8
2022-11-12T04:46:30.430Z,14.8
2022-11-12T04:47:36.554Z,14.8
2022-11-12T04:48:42.658Z,14.8
2022-11-12T04:49:48.769Z,14.8
2022-11-12T04:50:54.879Z,14.8
2022-11-12T04:52:00.998Z,14.8
2022-11-12T04:53:07.109Z,14.8
2022-11-12T04:54:13.215Z,14.8
2022-11-12T04:55:18.365Z,14.8
2022-11-12T04:56:23.491Z,14.8
2022-11-12T04:57:28.639Z,14.8
2022-11-12T04:58:33.750Z,14.8
2022-11-12T04:59:39.871Z,14.8
2022-11-12T05:00:46.029Z,14.8
2022-11-12T05:01:52.169Z,14.8
2022-11-12T05:02:58.213Z,14.8
2022-11-12T05:04:04.332Z,14.8
2022-11-12T05:05:10.539Z,14.8
2022-11-12T05:06:16.557Z,14.8
2022-11-12T05:07:22.672Z,14.8
2022-11-12T05:08:28.777Z,14.8
2022-11-12T05:09:34.886Z,14.8
2022-11-12T05:10:41.001Z,14.8
2022-11-12T05:11:47.253Z,14.8
2022-11-12T05:12:52.256Z,14.8
2022-11-12T05:13:58.368Z,14.8
2022-11-12T05:15:04.477Z,14.8
2022-11-12T05:16:10.633Z,14.8
2022-11-12T05:17:16.715Z,14.8
2022-11-12T05:18:22.824Z,14.8
2022-11-12T05:19:28.932Z,14.8
2022-11-12T05:20:34.158Z,14.8
2022-11-12T05:21:39.198Z,14.8
2022-11-12T05:22:45.313Z,14.8
2022-11-12T05:23:51.431Z,14.8
2022-11-12T05:24:57.539Z,14.8
2022-11-12T05:26:03.660Z,14.8
2022-11-12T05:27:09.770Z,14.8
2022-11-12T05:28:15.881Z,14.8
2022-11-12T05:29:21.996Z,14.8
2022-11-12T05:30:28.105Z,14.8
2022-11-12T05:31:34.217Z,14.8
2022-11-12T05:32:40.341Z,14.8
2022-11-12T05:33:46.455Z,14.8
2022-11-12T05:34:52.588Z,14.8
2022-11-12T05:35:57.770Z,14.8
2022-11-12T05:37:03.882Z,14.8
2022-11-12T05:38:09.926Z,14.8
2022-11-12T05:39:16.080Z,14.8
2022-11-12T05:40:22.205Z,14.8
2022-11-12T05:41:28.269Z,14.8
2022-11-12T05:42:34.384Z,14.8
2022-11-12T05:43:39.542Z,14.8
2022-11-12T05:44:44.738Z,14.8
2022-11-12T05:45:49.779Z,14.8
2022-11-12T05:46:54.911Z,14.8
2022-11-12T05:48:01.022Z,14.8
2022-11-12T05:49:07.135Z,14.8
2022-11-12T05:50:13.250Z,14.8
2022-11-12T05:51:19.370Z,14.7
2022-11-12T05:52:25.476Z,14.8
2022-11-12T05:53:31.591Z,14.8
2022-11-12T05:54:37.707Z,14.8
2022-11-12T05:55:43.812Z,14.8
2022-11-12T05:56:49.930Z,14.8
2022-11-12T05:57:56.052Z,14.7
2022-11-12T05:59:02.190Z,14.7
2022-11-12T06:00:08.270Z,14.7
2022-11-12T06:01:13.396Z,14.7
2022-11-12T06:02:19.534Z,14.7
2022-11-12T06:03:25.661Z,14.7
2022-11-12T06:04:31.746Z,14.7
2022-11-12T06:05:37.868Z,14.7
2022-11-12T06:06:43.970Z,14.7
2022-11-12T06:07:50.089Z,14.7
2022-11-12T06:08:55.228Z,14.7
2022-11-12T06:10:00.357Z,14.7
2022-11-12T06:11:06.469Z,14.7
2022-11-12T06:12:12.624Z,14.7
2022-11-12T06:13:18.690Z,14.7
2022-11-12T06:14:24.803Z,14.7
2022-11-12T06:15:30.929Z,14.7
2022-11-12T06:16:37.039Z,14.7
2022-11-12T06:17:43.165Z,14.7
2022-11-12T06:18:49.256Z,14.7
2022-11-12T06:19:55.411Z,14.7
2022-11-12T06:21:01.488Z,14.7
2022-11-12T06:22:07.618Z,14.7
2022-11-12T06:23:13.743Z,14.7
2022-11-12T06:24:18.844Z,14.7
2022-11-12T06:25:24.998Z,14.7
2022-11-12T06:26:31.068Z,14.7
2022-11-12T06:27:37.194Z,14.7
2022-11-12T06:28:43.318Z,14.7
2022-11-12T06:29:49.416Z,14.7
2022-11-12T06:30:55.523Z,14.7
2022-11-12T06:32:00.694Z,14.7
2022-11-12T06:33:05.811Z,14.7
2022-11-12T06:34:11.973Z,14.7
2022-11-12T06:35:18.026Z,14.7
2022-11-12T06:36:24.189Z,14.7
2022-11-12T06:37:30.252Z,14.7
2022-11-12T06:38:36.381Z,14.7
2022-11-12T06:39:42.513Z,14.7
2022-11-12T06:40:48.594Z,14.7
2022-11-12T06:41:54.760Z,14.7
2022-11-12T06:43:00.825Z,14.7
2022-11-12T06:44:06.935Z,14.7
2022-11-12T06:45:13.048Z,14.7
2022-11-12T06:46:19.225Z,14.7
2022-11-12T06:47:24.304Z,14.7
2022-11-12T06:48:30.466Z,14.7
2022-11-12T06:49:36.543Z,14.7
2022-11-12T06:50:42.645Z,14.7
2022-11-12T06:51:48.746Z,14.7
2022-11-12T06:52:54.912Z,14.7
2022-11-12T06:54:00.973Z,14.7
2022-11-12T06:55:06.103Z,14.7
2022-11-12T06:56:11.237Z,14.7
2022-11-12T06:57:16.380Z,14.7
2022-11-12T06:58:21.507Z,14.6
2022-11-12T06:59:26.682Z,14.7
2022-11-12T07:00:31.837Z,14.7
2022-11-12T07:01:37.895Z,14.7
2022-11-12T07:02:43.992Z,14.7
2022-11-12T07:03:49.136Z,14.7
2022-11-12T07:04:55.249Z,14.7
2022-11-12T07:06:01.377Z,14.7
2022-11-12T07:07:07.474Z,14.6
2022-11-12T07:08:13.607Z,14.7
2022-11-12T07:09:19.714Z,14.6
2022-11-12T07:10:25.836Z,14.6
2022-11-12T07:11:31.931Z,14.6
2022-11-12T07:12:38.044Z,14.6
2022-11-12T07:13:44.213Z,14.6
2022-11-12T07:14:50.267Z,14.6
2022-11-12T07:15:56.394Z,14.6
2022-11-12T07:17:02.579Z,14.6
2022-11-12T07:18:07.641Z,14.6
2022-11-12T07:19:13.841Z,14.6
2022-11-12T07:20:19.853Z,14.6
2022-11-12T07:21:25.977Z,14.6
2022-11-12T07:22:31.112Z,14.6
2022-11-12T07:23:36.243Z,14.6
2022-11-12T07:24:42.366Z,14.6
2022-11-12T07:25:47.488Z,14.6
2022-11-12T07:26:52.645Z,14.6
2022-11-12T07:27:58.735Z,14.6
2022-11-12T07:29:04.919Z,14.6
2022-11-12T07:30:10.972Z,14.6
2022-11-12T07:31:17.077Z,14.6
2022-11-12T07:32:23.184Z,14.6
2022-11-12T07:33:29.305Z,14.6
2022-11-12T07:34:35.461Z,14.6
2022-11-12T07:35:41.536Z,14.6
2022-11-12T07:36:47.646Z,14.6
2022-11-12T07:37:53.759Z,14.6
2022-11-12T07:38:59.869Z,14.6
2022-11-12T07:40:05.988Z,14.6
2022-11-12T07:41:11.124Z,14.6
2022-11-12T07:42:17.229Z,14.6
2022-11-12T07:43:23.338Z,14.6
2022-11-12T07:44:29.463Z,14.6
2022-11-12T07:45:35.577Z,14.6
2022-11-12T07:46:41.693Z,14.6
2022-11-12T07:47:47.796Z,14.6
2022-11-12T07:48:52.929Z,14.6
2022-11-12T07:49:58.089Z,14.6
2022-11-12T07:51:04.178Z,14.6
2022-11-12T07:52:09.319Z,14.6
2022-11-12T07:53:14.448Z,14.6
2022-11-12T07:54:20.578Z,14.6
2022-11-12T07:55:26.676Z,14.6
2022-11-12T07:56:32.780Z,14.6
2022-11-12T07:57:38.902Z,14.6
2022-11-12T07:58:45.011Z,14.6
2022-11-12T07:59:51.123Z,14.6
2022-11-12T08:00:57.237Z,14.6
2022-11-12T08:02:03.420Z,14.6
2022-11-12T08:03:09.480Z,14.6
2022-11-12T08:04:15.628Z,14.6
2022-11-12T08:05:21.701Z,14.6
2022-11-12T08:06:27.825Z,14.6
2022-11-12T08:07:32.931Z,14.6
2022-11-12T08:08:39.060Z,14.6
2022-11-12T08:09:45.173Z,14.6
2022-11-12T08:10:51.282Z,14.6
2022-11-12T08:11:57.404Z,14.6
2022-11-12T08:13:03.574Z,14.6
2022-11-12T08:14:09.627Z,14.6
2022-11-12T08:15:14.874Z,14.6
2022-11-12T08:16:19.954Z,14.6
2022-11-12T08:17:26.014Z,14.6
2022-11-12T08:18:32.114Z,14.6
2022-11-12T08:19:38.280Z,14.6
2022-11-12T08:20:44.352Z,14.6
2022-11-12T08:21:50.452Z,14.6
2022-11-12T08:22:56.567Z,14.6
2022-11-12T08:24:02.687Z,14.6
2022-11-12T08:25:08.796Z,14.6
2022-11-12T08:26:14.911Z,14.6
2022-11-12T08:27:21.022Z,14.6
2022-11-12T08:28:27.141Z,14.6
2022-11-12T08:29:33.253Z,14.6
2022-11-12T08:30:38.390Z,14.5
2022-11-12T08:31:44.641Z,14.5
2022-11-12T08:32:50.612Z,14.6
2022-11-12T08:33:56.725Z,14.5
2022-11-12T08:35:02.899Z,14.6
2022-11-12T08:36:08.956Z,14.6
2022-11-12T08:37:15.082Z,14.6
2022-11-12T08:38:20.204Z,14.5
2022-11-12T08:39:25.337Z,14.5
2022-11-12T08:40:30.489Z,14.5
2022-11-12T08:41:35.799Z,14.5
2022-11-12T08:42:40.737Z,14.5
2022-11-12T08:43:45.862Z,14.5
2022-11-12T08:44:51.967Z,14.5
2022-11-12T08:45:58.096Z,14.5
2022-11-12T08:47:04.218Z,14.5
2022-11-12T08:48:10.326Z,14.5
2022-11-12T08:49:16.438Z,14.5
2022-11-12T08:50:22.542Z,14.5
2022-11-12T08:51:28.727Z,14.5
2022-11-12T08:52:34.798Z,14.5
2022-11-12T08:53:40.887Z,14.5
2022-11-12T08:54:47.010Z,14.5
2022-11-12T08:55:53.121Z,14.5
2022-11-12T08:56:59.234Z,14.5
2022-11-12T08:58:04.359Z,14.5
2022-11-12T08:59:10.495Z,14.5
2022-11-12T09:00:16.592Z,14.5
2022-11-12T09:01:22.697Z,14.5
2022-11-12T09:02:28.821Z,14.5
2022-11-12T09:03:34.941Z,14.5
2022-11-12T09:04:41.042Z,14.5
2022-11-12T09:05:46.189Z,14.5
2022-11-12T09:06:51.316Z,14.5
2022-11-12T09:07:56.441Z,14.5
2022-11-12T09:09:01.579Z,14.5
2022-11-12T09:10:07.690Z,14.5
2022-11-12T09:11:13.828Z,14.5
2022-11-12T09:12:19.923Z,14.5
2022-11-12T09:13:26.030Z,14.5
2022-11-12T09:14:32.145Z,14.5
2022-11-12T09:15:38.260Z,14.5
2022-11-12T09:16:44.388Z,14.5
2022-11-12T09:17:50.492Z,14.5
2022-11-12T09:18:56.595Z,14.5
2022-11-12T09:20:02.707Z,14.5
2022-11-12T09:21:08.831Z,14.5
2022-11-12T09:22:14.950Z,14.5
2022-11-12T09:23:20.078Z,14.5
2022-11-12T09:24:26.185Z,14.5
2022-11-12T09:25:32.303Z,14.5
2022-11-12T09:26:38.430Z,14.5
2022-11-12T09:28:50.691Z,14.5
2022-11-12T09:29:56.751Z,14.5
2022-11-12T09:31:02.870Z,14.5
2022-11-12T09:32:08.010Z,14.5
2022-11-12T09:33:13.141Z,14.5
2022-11-12T09:34:18.269Z,14.5
2022-11-12T09:35:23.402Z,14.5
2022-11-12T09:36:29.513Z,14.4
2022-11-12T09:37:35.624Z,14.4
2022-11-12T09:38:41.744Z,14.4
2022-11-12T09:39:47.862Z,14.4
2022-11-12T09:40:53.969Z,14.5
2022-11-12T09:42:00.084Z,14.4
2022-11-12T09:43:06.198Z,14.4
2022-11-12T09:44:12.313Z,14.4
2022-11-12T09:45:18.438Z,14.5
2022-11-12T09:46:24.542Z,14.5
2022-11-12T09:47:30.650Z,14.4
2022-11-12T09:48:36.766Z,14.5
2022-11-12T09:49:41.902Z,14.4
2022-11-12T09:50:48.017Z,14.5
2022-11-12T09:51:54.128Z,14.5
2022-11-12T09:53:00.232Z,14.4
2022-11-12T09:54:06.354Z,14.4
2022-11-12T09:55:12.468Z,14.4
2022-11-12T09:56:18.622Z,14.4
2022-11-12T09:57:23.715Z,14.5
2022-11-12T09:58:28.848Z,14.4
2022-11-12T09:59:34.982Z,14.4
2022-11-12T10:00:41.071Z,14.4
2022-11-12T10:01:47.191Z,14.4
2022-11-12T10:02:53.372Z,14.4
2022-11-12T10:03:59.418Z,14.4
2022-11-12T10:05:05.541Z,14.4
2022-11-12T10:06:11.662Z,14.4
2022-11-12T10:07:17.777Z,14.4
2022-11-12T10:08:23.871Z,14.4
2022-11-12T10:09:29.989Z,14.4
2022-11-12T10:10:36.112Z,14.4
2022-11-12T10:11:42.212Z,14.4
2022-11-12T10:12:47.358Z,14.4
2022-11-12T10:13:53.457Z,14.4
2022-11-12T10:14:59.567Z,14.4
2022-11-12T10:16:05.685Z,14.4
2022-11-12T10:17:11.796Z,14.4
2022-11-12T10:18:17.912Z,14.4
2022-11-12T10:19:24.032Z,14.4
2022-11-12T10:20:29.164Z,14.4
2022-11-12T10:21:34.295Z,14.4
2022-11-12T10:22:39.435Z,14.4
2022-11-12T10:23:44.561Z,14.4
2022-11-12T10:24:50.667Z,14.4
2022-11-12T10:25:56.788Z,14.4
2022-11-12T10:27:02.901Z,14.4
2022-11-12T10:28:09.017Z,14.4
2022-11-12T10:29:15.122Z,14.4
2022-11-12T10:30:21.238Z,14.4
2022-11-12T10:31:27.359Z,14.4
2022-11-12T10:32:33.498Z,14.4
2022-11-12T10:33:39.587Z,14.4
2022-11-12T10:34:45.699Z,14.4
2022-11-12T10:35:51.809Z,14.4
2022-11-12T10:36:57.928Z,14.4
2022-11-12T10:38:03.055Z,14.4
2022-11-12T10:39:09.223Z,14.4
2022-11-12T10:40:15.283Z,14.4
2022-11-12T10:41:21.394Z,14.4
2022-11-12T10:42:27.563Z,14.4
2022-11-12T10:43:33.648Z,14.4
2022-11-12T10:44:38.758Z,14.4
2022-11-12T10:45:43.924Z,14.4
2022-11-12T10:46:49.040Z,14.4
2022-11-12T10:47:55.146Z,14.4
2022-11-12T10:49:01.260Z,14.3
2022-11-12T10:50:07.393Z,14.4
2022-11-12T10:51:13.475Z,14.4
2022-11-12T10:52:19.604Z,14.3
2022-11-12T10:53:25.716Z,14.3
2022-11-12T10:54:31.830Z,14.4
2022-11-12T10:55:37.932Z,14.4
2022-11-12T10:56:44.049Z,14.3
2022-11-12T10:57:50.171Z,14.3
2022-11-12T10:58:56.295Z,14.3
2022-11-12T11:00:02.398Z,14.3
2022-11-12T11:01:07.518Z,14.3
2022-11-12T11:02:13.638Z,14.3
2022-11-12T11:03:19.752Z,14.3
2022-11-12T11:04:25.860Z,14.3
2022-11-12T11:05:31.976Z,14.3
2022-11-12T11:06:38.091Z,14.4
2022-11-12T11:07:44.211Z,14.3
2022-11-12T11:08:49.336Z,14.3
2022-11-12T11:09:54.528Z,14.3
2022-11-12T11:10:59.606Z,14.3
2022-11-12T11:12:04.812Z,14.3
2022-11-12T11:13:09.875Z,14.3
2022-11-12T11:14:15.007Z,14.3
2022-11-12T11:15:21.132Z,14.3
2022-11-12T11:16:27.255Z,14.3
2022-11-12T11:17:33.417Z,14.3
2022-11-12T11:18:39.459Z,14.3
2022-11-12T11:19:45.592Z,14.3
2022-11-12T11:20:51.684Z,14.3
2022-11-12T11:21:57.793Z,14.3
2022-11-12T11:23:03.915Z,14.3
2022-11-12T11:24:10.108Z,14.3
2022-11-12T11:25:16.144Z,14.3
2022-11-12T11:26:22.315Z,14.3
2022-11-12T11:27:28.382Z,14.3
2022-11-12T11:28:33.497Z,14.3
2022-11-12T11:29:39.616Z,14.3
2022-11-12T11:30:45.720Z,14.3
2022-11-12T11:31:51.833Z,14.3
2022-11-12T11:32:57.990Z,14.3
2022-11-12T11:34:04.070Z,14.3
2022-11-12T11:35:10.178Z,14.3
2022-11-12T11:36:15.415Z,14.3
2022-11-12T11:37:20.443Z,14.3
2022-11-12T11:38:25.583Z,14.3
2022-11-12T11:39:30.765Z,14.3
2022-11-12T11:40:36.819Z,14.3
2022-11-12T11:41:42.940Z,14.3
2022-11-12T11:42:49.047Z,14.3
2022-11-12T11:43:55.164Z,14.3
2022-11-12T11:45:01.277Z,14.3
2022-11-12T11:46:07.436Z,14.3
2022-11-12T11:47:13.504Z,14.3
2022-11-12T11:48:19.623Z,14.3
2022-11-12T11:49:25.730Z,14.3
2022-11-12T11:50:31.854Z,14.3
2022-11-12T11:51:37.956Z,14.3
2022-11-12T11:52:44.070Z,14.3
2022-11-12T11:53:49.207Z,14.3
2022-11-12T11:54:55.317Z,14.3
2022-11-12T11:56:01.440Z,14.3
2022-11-12T11:57:07.554Z,14.3
2022-11-12T11:58:13.653Z,14.3
2022-11-12T11:59:19.779Z,14.3
2022-11-12T12:00:25.896Z,14.3
2022-11-12T12:01:31.057Z,14.3
2022-11-12T12:02:36.164Z,14.3
2022-11-12T12:03:41.294Z,14.3
2022-11-12T12:04:46.425Z,14.3
2022-11-12T12:05:52.539Z,14.3
2022-11-12T12:06:58.647Z,14.3
2022-11-12T12:08:04.760Z,14.3
2022-11-12T12:09:10.876Z,14.3
2022-11-12T12:10:16.997Z,14.3
2022-11-12T12:11:23.109Z,14.3
2022-11-12T12:12:29.224Z,14.3
2022-11-12T12:13:35.328Z,14.3
2022-11-12T12:14:41.443Z,14.3
2022-11-12T12:15:47.555Z,14.3
2022-11-12T12:16:53.715Z,14.3
2022-11-12T12:17:59.787Z,14.3
2022-11-12T12:19:04.913Z,14.3
2022-11-12T12:20:11.037Z,14.3
2022-11-12T12:22:23.258Z,14.3
2022-11-12T12:23:29.385Z,14.3
2022-11-12T12:24:35.489Z,14.3
2022-11-12T12:25:41.604Z,14.3
2022-11-12T12:26:47.718Z,14.3
2022-11-12T12:27:52.860Z,14.2
2022-11-12T12:28:57.996Z,14.3
2022-11-12T12:30:04.221Z,14.3
2022-11-12T12:31:10.242Z,14.3
2022-11-12T12:32:16.386Z,14.2
2022-11-12T12:33:22.438Z,14.2
2022-11-12T12:34:28.555Z,14.2
2022-11-12T12:35:34.677Z,14.2
2022-11-12T12:36:40.799Z,14.2
2022-11-12T12:37:47.016Z,14.3
2022-11-12T12:38:53.001Z,14.2
2022-11-12T12:39:59.131Z,14.2
2022-11-12T12:41:05.258Z,14.2
2022-11-12T12:42:11.357Z,14.2
2022-11-12T12:43:16.506Z,14.2
2022-11-12T12:44:22.595Z,14.2
2022-11-12T12:45:28.771Z,14.2
2022-11-12T12:46:34.909Z,14.2
2022-11-12T12:47:40.939Z,14.2
2022-11-12T12:48:47.098Z,14.2
2022-11-12T12:49:53.289Z,14.2
2022-11-12T12:50:58.427Z,14.2
2022-11-12T12:52:03.431Z,14.2
2022-11-12T12:53:08.570Z,14.2
2022-11-12T12:54:13.707Z,14.2
2022-11-12T12:55:18.828Z,14.2
2022-11-12T12:56:23.954Z,14.2
2022-11-12T12:57:30.070Z,14.2
2022-11-12T12:58:36.181Z,14.2
2022-11-12T12:59:42.339Z,14.2
2022-11-12T13:00:48.437Z,14.2
2022-11-12T13:01:54.536Z,14.2
2022-11-12T13:03:00.651Z,14.2
2022-11-12T13:04:06.856Z,14.2
2022-11-12T13:05:12.873Z,14.2
2022-11-12T13:06:18.987Z,14.2
2022-11-12T13:07:25.095Z,14.2
2022-11-12T13:08:31.296Z,14.2
2022-11-12T13:09:37.372Z,14.2
2022-11-12T13:10:42.485Z,14.2
2022-11-12T13:11:48.671Z,14.2
2022-11-12T13:12:54.838Z,14.2
2022-11-12T13:14:00.804Z,14.2
2022-11-12T13:15:06.906Z,14.2
2022-11-12T13:16:13.029Z,14.2
2022-11-12T13:17:19.141Z,14.2
2022-11-12T13:18:24.272Z,14.2
2022-11-12T13:19:29.408Z,14.2
2022-11-12T13:20:35.517Z,14.2
2022-11-12T13:21:40.659Z,14.2
2022-11-12T13:22:45.782Z,14.2
2022-11-12T13:23:51.895Z,14.2
2022-11-12T13:24:58.021Z,14.2
2022-11-12T13:26:04.158Z,14.2
2022-11-12T13:27:10.287Z,14.2
2022-11-12T13:28:16.353Z,14.2
2022-11-12T13:29:22.470Z,14.2
2022-11-12T13:30:28.583Z,14.2
2022-11-12T13:31:34.708Z,14.2
2022-11-12T13:32:40.886Z,14.2
2022-11-12T13:33:47.005Z,14.2
2022-11-12T13:34:53.091Z,14.2
2022-11-12T13:35:59.161Z,14.2
2022-11-12T13:37:04.277Z,14.2
2022-11-12T13:38:10.403Z,14.2
2022-11-12T13:39:16.534Z,14.2
2022-11-12T13:40:22.634Z,14.2
2022-11-12T13:41:28.734Z,14.2
2022-11-12T13:42:34.854Z,14.2
2022-11-12T13:43:40.964Z,14.2
2022-11-12T13:44:46.107Z,14.2
2022-11-12T13:45:51.241Z,14.2
2022-11-12T13:46:57.339Z,14.2
2022-11-12T13:48:03.475Z,14.2
2022-11-12T13:49:09.570Z,14.2
2022-11-12T13:50:15.692Z,14.2
2022-11-12T13:51:21.805Z,14.2
2022-11-12T13:52:27.918Z,14.2
2022-11-12T13:53:34.026Z,14.2
2022-11-12T13:54:40.145Z,14.2
2022-11-12T13:55:46.253Z,14.2
2022-11-12T13:56:52.365Z,14.2
2022-11-12T13:57:58.496Z,14.2
2022-11-12T13:59:04.599Z,14.2
2022-11-12T14:00:09.724Z,14.2
2022-11-12T14:01:15.836Z,14.2
2022-11-12T14:02:21.961Z,14.2
2022-11-12T14:03:28.093Z,14.2
2022-11-12T14:04:34.184Z,14.2
2022-11-12T14:05:40.304Z,14.2
2022-11-12T14:06:46.410Z,14.2
2022-11-12T14:07:51.538Z,14.2
2022-11-12T14:08:56.739Z,14.2
2022-11-12T14:10:01.855Z,14.2
2022-11-12T14:11:06.934Z,14.2
2022-11-12T14:12:12.071Z,14.2
2022-11-12T14:13:17.231Z,14.2
2022-11-12T14:14:23.317Z,14.2
2022-11-12T14:15:29.437Z,14.1
2022-11-12T14:16:35.599Z,14.2
2022-11-12T14:17:41.653Z,14.2
2022-11-12T14:19:53.903Z,14.1
2022-11-12T14:21:00.002Z,14.1
2022-11-12T14:22:06.155Z,14.2
2022-11-12T14:23:12.240Z,14.2
2022-11-12T14:24:18.353Z,14.2
2022-11-12T14:25:23.486Z,14.2
2022-11-12T14:26:29.600Z,14.2
2022-11-12T14:27:35.710Z,14.1
2022-11-12T14:28:41.836Z,14.2
2022-11-12T14:29:48.027Z,14.2
2022-11-12T14:30:54.070Z,14.2
2022-11-12T14:32:00.178Z,14.2
2022-11-12T14:33:06.283Z,14.2
2022-11-12T14:34:12.398Z,14.1
2022-11-12T14:35:18.532Z,14.2
2022-11-12T14:36:23.638Z,14.1
2022-11-12T14:37:28.772Z,14.1
2022-11-12T14:38:33.925Z,14.1
2022-11-12T14:39:39.036Z,14.1
2022-11-12T14:40:45.199Z,14.2
2022-11-12T14:41:51.321Z,14.2
2022-11-12T14:42:57.410Z,14.1
2022-11-12T14:44:03.520Z,14.1
2022-11-12T14:45:09.616Z,14.1
2022-11-12T14:46:15.755Z,14.1
2022-11-12T14:47:21.843Z,14.1
2022-11-12T14:48:27.978Z,14.1
2022-11-12T14:49:34.072Z,14.1
2022-11-12T14:50:40.189Z,14.1